Time;durP1;ratioP1;P1;durP2;ratioP2;P2;SDS_P1;SDS_P2;PMS_P1;PMS_P2;Temp;Humidity;BMP_temperature;BMP_pressure;BME280_temperature;BME280_humidity;BME280_pressure;Samples;Min_cycle;Max_cycle;Signal;HPM_P1;HPM_P2
2021/06/30 00:00:35;;;;;;;20.30;6.95;;;;;;;14.32;92.40;98926.88;5032773;28;20622;-62
2021/06/30 00:03:01;;;;;;;15.88;7.10;;;;;;;14.31;92.48;98925.28;5033291;28;20034;-62
2021/06/30 00:05:26;;;;;;;15.90;6.75;;;;;;;14.37;92.33;98921.47;5032833;28;20037;-62
2021/06/30 00:07:52;;;;;;;18.63;7.20;;;;;;;14.49;91.86;98931.16;5033200;28;20017;-62
2021/06/30 00:10:18;;;;;;;24.40;6.93;;;;;;;14.53;91.47;98921.44;5032908;28;20037;-62
2021/06/30 00:12:43;;;;;;;18.92;7.15;;;;;;;14.65;90.93;98913.84;5033170;28;20514;-62
2021/06/30 00:15:17;;;;;;;22.70;7.03;;;;;;;14.58;91.22;98916.88;5031545;28;20017;-62
2021/06/30 00:17:43;;;;;;;20.65;6.78;;;;;;;14.68;90.66;98910.63;5012167;28;20440;-62
2021/06/30 00:20:09;;;;;;;22.77;6.75;;;;;;;14.56;91.47;98902.84;5014048;28;20073;-62
2021/06/30 00:22:34;;;;;;;16.33;6.63;;;;;;;14.59;91.37;98909.56;5032868;28;20032;-62
2021/06/30 00:25:00;;;;;;;16.73;6.80;;;;;;;14.56;91.11;98913.63;5033225;28;20021;-62
2021/06/30 00:27:25;;;;;;;26.33;8.40;;;;;;;14.56;91.26;98915.53;5031178;28;20507;-62
2021/06/30 00:29:51;;;;;;;19.33;7.07;;;;;;;14.56;91.47;98913.63;5032871;28;20029;-62
2021/06/30 00:32:17;;;;;;;23.90;7.50;;;;;;;14.60;91.45;98911.19;5013836;28;20084;-62
2021/06/30 00:34:42;;;;;;;22.00;7.05;;;;;;;14.51;91.60;98904.72;5013111;28;20026;-62
2021/06/30 00:37:07;;;;;;;21.25;7.45;;;;;;;14.45;91.61;98902.06;5028226;28;20392;-62
2021/06/30 00:39:33;;;;;;;15.90;7.30;;;;;;;14.45;91.43;98903.94;5032941;28;20040;-62
2021/06/30 00:41:58;;;;;;;16.42;8.00;;;;;;;14.37;91.64;98905.31;5032312;28;20547;-62
2021/06/30 00:44:24;;;;;;;16.20;8.60;;;;;;;14.33;91.74;98917.75;5031520;28;20057;-62
2021/06/30 00:46:49;;;;;;;22.02;7.88;;;;;;;14.48;91.48;98907.97;5032165;28;20053;-62
2021/06/30 00:49:15;;;;;;;14.82;8.10;;;;;;;14.42;91.08;98905.28;5032775;28;20041;-62
2021/06/30 00:51:40;;;;;;;20.05;7.97;;;;;;;14.46;91.09;98903.66;5018701;28;20034;-62
2021/06/30 00:54:06;;;;;;;19.13;7.25;;;;;;;14.51;91.29;98908.22;5012932;28;20105;-62
2021/06/30 00:56:31;;;;;;;15.85;7.55;;;;;;;14.49;91.25;98917.69;5025085;28;20053;-62
2021/06/30 00:58:58;;;;;;;31.75;8.00;;;;;;;14.42;91.60;98926.06;5031362;28;20384;-62
2021/06/30 01:01:24;;;;;;;18.00;7.60;;;;;;;14.51;90.65;98919.00;5031951;28;20108;-63
2021/06/30 01:03:49;;;;;;;15.80;7.28;;;;;;;14.52;91.14;98922.50;5032559;28;20026;-63
2021/06/30 01:06:15;;;;;;;24.95;7.25;;;;;;;14.46;91.26;98922.53;5032192;28;20443;-63
2021/06/30 01:08:41;;;;;;;18.67;8.32;;;;;;;14.46;91.06;98916.34;5032407;28;20037;-64
2021/06/30 01:11:06;;;;;;;26.52;7.88;;;;;;;14.46;91.47;98910.94;5032050;28;20151;-63
2021/06/30 01:13:32;;;;;;;18.00;7.43;;;;;;;14.37;91.50;98908.00;5032511;28;20048;-63
2021/06/30 01:15:57;;;;;;;19.88;7.28;;;;;;;14.60;90.80;98900.38;5014393;28;20034;-63
2021/06/30 01:18:23;;;;;;;15.80;7.30;;;;;;;14.48;90.45;98887.22;5032652;28;20033;-64
2021/06/30 01:20:49;;;;;;;15.13;6.93;;;;;;;14.43;91.14;98896.13;5032184;28;20033;-63
2021/06/30 01:23:15;;;;;;;23.00;7.40;;;;;;;14.44;90.93;98897.72;5032386;28;20026;-63
2021/06/30 01:25:40;;;;;;;19.52;7.32;;;;;;;14.39;91.30;98900.44;5030873;28;20048;-63
2021/06/30 01:28:06;;;;;;;20.90;7.10;;;;;;;14.35;91.35;98896.72;5031152;28;20026;-63
2021/06/30 01:30:31;;;;;;;25.55;7.28;;;;;;;14.45;90.96;98899.34;5031964;28;20037;-62
2021/06/30 01:32:57;;;;;;;28.85;6.88;;;;;;;14.39;90.68;98894.25;5032233;28;20476;-63
2021/06/30 01:35:23;;;;;;;27.50;7.40;;;;;;;14.23;92.02;98896.19;5031857;28;20049;-63
2021/06/30 01:37:49;;;;;;;29.42;8.48;;;;;;;14.14;92.25;98897.84;5032388;28;20033;-63
2021/06/30 01:40:16;;;;;;;13.48;7.80;;;;;;;14.21;91.87;98892.97;5029916;28;20456;-65
2021/06/30 01:42:48;;;;;;;15.40;7.22;;;;;;;14.26;91.33;98890.25;5012569;28;20084;-63
2021/06/30 01:45:14;;;;;;;17.10;7.15;;;;;;;14.21;90.93;98888.38;5013905;28;20026;-63
2021/06/30 01:47:39;;;;;;;22.25;7.40;;;;;;;14.27;90.94;98881.06;5033250;28;20307;-63
2021/06/30 01:50:05;;;;;;;18.73;7.05;;;;;;;14.28;91.04;98877.31;5035645;28;20021;-63
2021/06/30 01:52:31;;;;;;;23.35;6.80;;;;;;;14.24;90.81;98876.25;5035839;28;20025;-62
2021/06/30 01:54:56;;;;;;;15.32;6.90;;;;;;;14.12;90.94;98881.13;5035819;28;20499;-63
2021/06/30 01:57:21;;;;;;;20.05;6.60;;;;;;;14.00;91.37;98884.94;5015514;28;20026;-63
2021/06/30 01:59:47;;;;;;;18.85;7.03;;;;;;;13.91;91.66;98886.56;5015802;28;20180;-62
2021/06/30 02:02:12;;;;;;;15.18;6.53;;;;;;;13.81;92.53;98894.69;5033148;28;20069;-63
2021/06/30 02:04:38;;;;;;;16.85;7.28;;;;;;;13.81;92.47;98891.97;5035472;28;20033;-63
2021/06/30 02:07:03;;;;;;;18.90;6.75;;;;;;;13.76;92.49;98894.69;5018281;28;20045;-62
2021/06/30 02:09:29;;;;;;;24.48;7.55;;;;;;;13.66;92.60;98895.50;5015248;28;20045;-63
2021/06/30 02:11:54;;;;;;;34.97;7.47;;;;;;;13.63;92.98;98903.28;5030758;28;20037;-63
2021/06/30 02:14:20;;;;;;;27.52;9.75;;;;;;;13.69;92.73;98902.22;5035353;28;20398;-62
2021/06/30 02:16:45;;;;;;;20.88;7.63;;;;;;;13.68;92.36;98906.81;5034863;28;20345;-63
2021/06/30 02:19:11;;;;;;;21.75;7.32;;;;;;;13.97;91.50;98904.34;5034284;28;20034;-62
2021/06/30 02:21:37;;;;;;;18.13;7.50;;;;;;;14.01;92.24;98905.41;5021749;28;20042;-63
2021/06/30 02:24:03;;;;;;;16.70;7.57;;;;;;;13.95;92.43;98895.72;5015296;28;20029;-62
2021/06/30 02:26:29;;;;;;;19.60;7.30;;;;;;;14.01;92.52;98894.63;5027034;28;20084;-63
2021/06/30 02:28:55;;;;;;;28.38;7.43;;;;;;;14.05;92.72;98894.06;5035105;28;20491;-63
2021/06/30 02:31:21;;;;;;;27.95;7.85;;;;;;;14.19;92.15;98906.72;5034730;28;20095;-62
2021/06/30 02:33:46;;;;;;;18.98;7.45;;;;;;;14.18;92.45;98904.31;5035347;28;20052;-61
2021/06/30 02:36:12;;;;;;;16.73;7.07;;;;;;;14.23;92.26;98901.59;5034643;28;20107;-62
2021/06/30 02:38:38;;;;;;;20.92;7.85;;;;;;;14.23;92.16;98902.41;5034834;28;20129;-62
2021/06/30 02:41:03;;;;;;;23.63;7.90;;;;;;;14.24;92.70;98900.50;5026018;28;20038;-62
2021/06/30 02:43:28;;;;;;;19.67;7.75;;;;;;;14.17;92.39;98902.69;5014917;28;20026;-62
2021/06/30 02:45:54;;;;;;;14.52;7.32;;;;;;;14.25;91.77;98910.19;5021942;28;20487;-61
2021/06/30 02:48:20;;;;;;;18.30;7.95;;;;;;;14.26;92.02;98914.53;5034998;28;20483;-62
2021/06/30 02:50:45;;;;;;;21.25;7.50;;;;;;;14.33;91.54;98916.94;5034645;28;20029;-62
2021/06/30 02:53:11;;;;;;;17.35;7.57;;;;;;;14.35;91.52;98912.88;5034900;28;20044;-62
2021/06/30 02:55:37;;;;;;;15.10;6.85;;;;;;;14.49;91.33;98920.38;5034399;28;20483;-62
2021/06/30 02:58:02;;;;;;;17.75;7.10;;;;;;;14.48;91.32;98913.34;5033859;28;20464;-62
2021/06/30 03:00:28;;;;;;;13.27;7.05;;;;;;;14.56;90.83;98918.22;5030317;28;20125;-62
2021/06/30 03:02:53;;;;;;;15.57;6.82;;;;;;;14.59;90.57;98920.38;5014688;28;20041;-62
2021/06/30 03:05:19;;;;;;;18.45;7.35;;;;;;;14.56;91.01;98915.53;5017161;28;20046;-62
2021/06/30 03:07:44;;;;;;;15.85;6.95;;;;;;;14.54;91.21;98917.69;5034373;28;20025;-62
2021/06/30 03:10:11;;;;;;;12.48;7.07;;;;;;;14.56;91.23;98918.22;5034171;28;20025;-62
2021/06/30 03:12:37;;;;;;;16.13;7.10;;;;;;;14.45;90.92;98910.16;5034184;28;20057;-62
2021/06/30 03:15:03;;;;;;;16.85;7.07;;;;;;;14.33;91.49;98906.94;5032341;28;20025;-62
2021/06/30 03:17:31;;;;;;;17.33;7.32;;;;;;;14.36;91.54;98906.41;5014512;28;20062;-62
2021/06/30 03:19:56;;;;;;;20.20;6.82;;;;;;;14.36;91.10;98905.59;5013024;28;20109;-62
2021/06/30 03:22:21;;;;;;;18.90;7.85;;;;;;;14.40;91.25;98906.63;5033232;28;20487;-62
2021/06/30 03:24:47;;;;;;;20.10;8.10;;;;;;;14.36;91.08;98905.59;5033992;28;20017;-62
2021/06/30 03:27:12;;;;;;;15.30;6.93;;;;;;;14.44;91.22;98913.91;5033347;28;20048;-62
2021/06/30 03:29:38;;;;;;;18.13;7.18;;;;;;;14.40;90.87;98907.47;5034159;28;20029;-62
2021/06/30 03:32:04;;;;;;;17.10;7.72;;;;;;;14.35;90.94;98907.50;5033552;28;20034;-62
2021/06/30 03:34:29;;;;;;;17.10;7.13;;;;;;;14.31;92.16;98908.31;5033957;28;20029;-62
2021/06/30 03:36:54;;;;;;;16.30;7.15;;;;;;;14.32;91.58;98905.31;5017942;28;20034;-62
2021/06/30 03:39:20;;;;;;;22.92;7.00;;;;;;;14.37;91.09;98908.00;5013945;28;20056;-62
2021/06/30 03:41:45;;;;;;;17.33;7.03;;;;;;;14.44;90.66;98902.31;5027991;28;20476;-62
2021/06/30 03:44:11;;;;;;;15.77;7.10;;;;;;;14.46;90.92;98906.34;5033609;28;20025;-62
2021/06/30 03:46:36;;;;;;;13.60;6.55;;;;;;;14.48;90.86;98905.25;5033159;28;20061;-62
2021/06/30 03:49:01;;;;;;;17.83;7.18;;;;;;;14.44;90.66;98908.50;5033761;28;20030;-62
2021/06/30 03:51:27;;;;;;;21.30;7.40;;;;;;;14.30;90.97;98895.91;5033206;28;20045;-62
2021/06/30 03:53:52;;;;;;;15.43;7.43;;;;;;;14.32;90.97;98899.94;5033168;28;20029;-62
2021/06/30 03:56:24;;;;;;;12.80;6.40;;;;;;;14.41;90.53;98897.47;5033073;28;20045;-62
2021/06/30 03:58:51;;;;;;;21.10;6.68;;;;;;;14.57;89.72;98906.34;5033677;28;20057;-62
2021/06/30 04:01:17;;;;;;;17.00;6.57;;;;;;;14.58;89.73;98894.50;5032845;28;20176;-62
2021/06/30 04:03:45;;;;;;;12.27;6.38;;;;;;;14.62;89.30;98900.94;5033429;28;20025;-62
2021/06/30 04:06:10;;;;;;;12.57;6.65;;;;;;;14.55;89.78;98900.41;5023486;28;20038;-62
2021/06/30 04:08:36;;;;;;;14.68;6.45;;;;;;;14.56;89.68;98896.66;5012302;28;20101;-62
2021/06/30 04:11:01;;;;;;;10.88;6.30;;;;;;;14.54;89.73;98901.50;5020939;28;20515;-63
2021/06/30 04:13:26;;;;;;;17.85;7.40;;;;;;;14.49;89.64;98898.81;5033780;28;20029;-63
2021/06/30 04:15:52;;;;;;;11.82;6.00;;;;;;;14.48;90.01;98898.00;5032799;28;20044;-62
2021/06/30 04:18:17;;;;;;;8.30;5.35;;;;;;;14.49;89.59;98899.59;5033139;28;20477;-62
2021/06/30 04:20:44;;;;;;;14.35;6.15;;;;;;;14.66;89.25;98900.09;5032734;28;20053;-62
2021/06/30 04:23:10;;;;;;;8.88;5.20;;;;;;;14.74;88.41;98904.09;5033119;28;20026;-62
2021/06/30 04:25:35;;;;;;;11.57;5.75;;;;;;;14.85;88.03;98905.69;5032531;28;20045;-62
2021/06/30 04:28:01;;;;;;;13.90;5.53;;;;;;;15.07;87.38;98901.75;5033210;28;20506;-62
2021/06/30 04:30:26;;;;;;;12.75;5.63;;;;;;;14.95;87.18;98901.28;5032702;28;20116;-62
2021/06/30 04:32:52;;;;;;;10.65;5.53;;;;;;;14.94;87.01;98907.78;5033044;28;20151;-62
2021/06/30 04:35:17;;;;;;;13.18;5.22;;;;;;;15.13;86.55;98911.44;5030243;28;20021;-62
2021/06/30 04:37:42;;;;;;;11.63;5.28;;;;;;;15.10;86.50;98909.28;5012977;28;20381;-62
2021/06/30 04:40:08;;;;;;;17.95;5.40;;;;;;;14.83;86.50;98912.44;5012611;28;20034;-61
2021/06/30 04:42:34;;;;;;;14.63;5.13;;;;;;;14.70;87.21;98919.22;5031681;28;20029;-62
2021/06/30 04:44:59;;;;;;;9.88;5.53;;;;;;;14.53;87.05;98911.50;5032860;28;20483;-62
2021/06/30 04:47:24;;;;;;;12.52;5.28;;;;;;;14.44;87.24;98915.81;5032373;28;20056;-63
2021/06/30 04:49:50;;;;;;;8.70;5.10;;;;;;;14.38;87.88;98917.72;5032818;28;20026;-62
2021/06/30 04:52:15;;;;;;;7.35;5.28;;;;;;;14.32;87.69;98924.19;5032446;28;20037;-62
2021/06/30 04:54:41;;;;;;;10.30;5.65;;;;;;;14.30;87.27;98918.25;5032712;28;20030;-62
2021/06/30 04:57:06;;;;;;;10.73;5.82;;;;;;;14.34;86.88;98913.94;5031185;28;20041;-62
2021/06/30 04:59:32;;;;;;;8.32;4.82;;;;;;;14.42;86.77;98912.56;5032695;28;20025;-62
2021/06/30 05:01:57;;;;;;;11.00;5.63;;;;;;;14.48;86.30;98916.03;5032191;28;20049;-62
2021/06/30 05:04:23;;;;;;;11.73;5.28;;;;;;;14.43;86.68;98924.97;5032878;28;20080;-62
2021/06/30 05:06:48;;;;;;;10.25;5.95;;;;;;;14.54;86.90;98923.09;5032164;28;20091;-62
2021/06/30 05:09:14;;;;;;;12.00;5.72;;;;;;;14.65;86.27;98919.25;5032679;28;20021;-62
2021/06/30 05:11:39;;;;;;;13.70;5.82;;;;;;;14.62;86.62;98927.91;5032150;28;20034;-62
2021/06/30 05:14:05;;;;;;;14.52;5.80;;;;;;;14.73;86.52;98926.78;5032641;28;20036;-62
2021/06/30 05:16:30;;;;;;;13.68;5.97;;;;;;;14.89;85.31;98936.41;5018777;28;20056;-63
2021/06/30 05:18:56;;;;;;;8.57;5.47;;;;;;;14.91;85.15;98930.72;5012921;28;20068;-62
2021/06/30 05:21:21;;;;;;;10.70;5.70;;;;;;;15.16;85.29;98929.78;5023609;28;20553;-62
2021/06/30 05:23:47;;;;;;;11.55;6.05;;;;;;;15.08;84.58;98930.38;5036557;28;20033;-62
2021/06/30 05:26:13;;;;;;;11.32;5.80;;;;;;;15.01;84.82;98932.56;5035956;28;20034;-62
2021/06/30 05:28:38;;;;;;;8.32;6.03;;;;;;;14.97;84.82;98940.41;5036485;28;20026;-62
2021/06/30 05:31:04;;;;;;;9.02;5.57;;;;;;;14.83;84.74;98932.13;5027447;28;20034;-62
2021/06/30 05:33:29;;;;;;;9.55;5.43;;;;;;;14.74;85.33;98938.38;5016482;28;20054;-62
2021/06/30 05:35:55;;;;;;;16.45;5.47;;;;;;;14.66;85.23;98942.44;5023460;28;20082;-62
2021/06/30 05:38:24;;;;;;;9.82;5.80;;;;;;;14.76;85.26;98939.72;5036250;28;20065;-62
2021/06/30 05:40:49;;;;;;;10.70;6.32;;;;;;;14.60;84.79;98932.75;5036322;28;20045;-62
2021/06/30 05:43:15;;;;;;;11.13;6.00;;;;;;;14.66;84.67;98943.25;5018435;28;20025;-62
2021/06/30 05:45:40;;;;;;;13.07;5.57;;;;;;;14.46;85.29;98941.41;5035695;28;20167;-62
2021/06/30 05:48:06;;;;;;;9.00;6.10;;;;;;;14.52;85.41;98936.00;5036023;28;20030;-62
2021/06/30 05:50:31;;;;;;;12.15;5.88;;;;;;;14.42;86.15;98943.03;5029672;28;20068;-62
2021/06/30 05:52:57;;;;;;;10.57;6.20;;;;;;;14.28;85.93;98942.00;5016039;28;20072;-62
2021/06/30 05:55:22;;;;;;;10.82;6.10;;;;;;;14.33;86.71;98944.69;5018739;28;20057;-62
2021/06/30 05:57:48;;;;;;;8.63;5.97;;;;;;;14.32;86.40;98947.66;5036159;28;20037;-62
2021/06/30 06:00:16;;;;;;;14.48;6.00;;;;;;;14.43;86.16;98947.34;5035455;28;20102;-62
2021/06/30 06:02:41;;;;;;;8.48;5.60;;;;;;;14.41;86.43;98940.63;5035328;28;20551;-62
2021/06/30 06:05:07;;;;;;;13.10;6.47;;;;;;;14.28;86.67;98951.97;5035035;28;20125;-63
2021/06/30 06:07:33;;;;;;;11.98;6.72;;;;;;;14.40;86.85;98950.59;5035308;28;20045;-63
2021/06/30 06:10:01;;;;;;;12.20;6.57;;;;;;;14.36;86.64;98954.13;5035696;28;20036;-63
2021/06/30 06:12:27;;;;;;;14.82;6.68;;;;;;;14.19;87.72;98957.13;5015540;28;20042;-62
2021/06/30 06:14:52;;;;;;;15.10;7.30;;;;;;;14.21;87.13;98952.25;5015843;28;20436;-63
2021/06/30 06:17:18;;;;;;;14.40;6.30;;;;;;;14.44;86.55;98957.03;5034001;28;20045;-63
2021/06/30 06:19:43;;;;;;;19.30;7.60;;;;;;;14.44;87.21;98945.47;5035435;28;20060;-63
2021/06/30 06:22:08;;;;;;;19.38;7.50;;;;;;;14.57;86.07;98938.69;5034848;28;20111;-63
2021/06/30 06:24:34;;;;;;;16.80;6.97;;;;;;;14.75;86.20;98945.38;5034118;28;20025;-62
2021/06/30 06:27:00;;;;;;;12.90;7.18;;;;;;;14.70;84.77;98948.88;5034900;28;20041;-63
2021/06/30 06:29:26;;;;;;;18.35;7.30;;;;;;;14.94;85.11;98937.47;5035214;28;20105;-63
2021/06/30 06:31:52;;;;;;;17.20;6.93;;;;;;;15.05;84.40;98937.13;5033592;28;20080;-63
2021/06/30 06:34:20;;;;;;;12.80;6.53;;;;;;;14.98;83.97;98942.03;5035124;28;20033;-63
2021/06/30 06:36:49;;;;;;;14.57;6.93;;;;;;;15.18;83.50;98937.63;5034635;28;20037;-63
2021/06/30 06:39:15;;;;;;;13.57;5.97;;;;;;;15.34;83.36;98933.72;5033889;28;20022;-63
2021/06/30 06:41:41;;;;;;;13.52;6.82;;;;;;;15.66;82.81;98918.88;5034557;28;20503;-63
2021/06/30 06:44:07;;;;;;;19.05;6.95;;;;;;;15.64;81.90;98923.75;5035217;28;20030;-63
2021/06/30 06:46:32;;;;;;;13.30;6.05;;;;;;;16.30;80.10;98927.75;5020667;28;20038;-63
2021/06/30 06:48:58;;;;;;;10.48;5.60;;;;;;;16.11;81.01;98927.69;5015154;28;20353;-63
2021/06/30 06:51:23;;;;;;;12.63;5.50;;;;;;;15.66;81.65;98921.59;5014679;28;20030;-63
2021/06/30 06:53:48;;;;;;;17.33;5.90;;;;;;;15.91;81.74;98923.28;5014045;28;20376;-63
2021/06/30 06:56:18;;;;;;;15.90;5.78;;;;;;;15.58;82.93;98924.91;5024587;28;20056;-63
2021/06/30 06:58:44;;;;;;;14.30;5.78;;;;;;;15.36;82.16;98922.63;5034907;28;20061;-62
2021/06/30 07:01:10;;;;;;;14.32;5.28;;;;;;;15.93;81.31;98921.09;5034199;28;20562;-63
2021/06/30 07:03:35;;;;;;;11.35;5.05;;;;;;;16.88;77.88;98930.34;5034727;28;20025;-63
2021/06/30 07:06:00;;;;;;;7.22;4.22;;;;;;;15.91;78.75;98923.28;5034064;28;20037;-63
2021/06/30 07:08:26;;;;;;;11.40;4.38;;;;;;;16.69;77.29;98932.97;5033308;28;20029;-63
2021/06/30 07:10:51;;;;;;;9.15;4.22;;;;;;;17.12;75.32;98940.28;5025853;28;20042;-63
2021/06/30 07:13:17;;;;;;;7.90;4.10;;;;;;;17.00;75.39;98935.31;5014981;28;20026;-63
2021/06/30 07:15:42;;;;;;;10.90;4.35;;;;;;;18.00;72.48;98937.88;5014299;28;20369;-63
2021/06/30 07:18:17;;;;;;;12.38;3.65;;;;;;;19.45;66.91;98943.59;5014653;28;20404;-63
2021/06/30 07:20:43;;;;;;;5.65;3.28;;;;;;;17.30;72.90;98939.50;5019905;28;20037;-63
2021/06/30 07:23:09;;;;;;;7.75;3.63;;;;;;;17.39;73.75;98948.56;5034580;28;20052;-63
2021/06/30 07:25:35;;;;;;;10.10;3.80;;;;;;;17.04;74.73;98950.66;5033970;28;20084;-63
2021/06/30 07:28:00;;;;;;;4.60;3.00;;;;;;;17.32;71.44;98950.81;5034070;28;20056;-63
2021/06/30 07:30:26;;;;;;;6.40;3.20;;;;;;;17.29;73.94;98954.13;5033888;28;20037;-63
2021/06/30 07:32:51;;;;;;;7.40;3.58;;;;;;;17.86;70.98;98949.47;5034252;28;20479;-63
2021/06/30 07:35:16;;;;;;;9.63;3.40;;;;;;;17.31;71.28;98943.81;5031647;28;20456;-63
2021/06/30 07:37:42;;;;;;;9.73;3.38;;;;;;;17.22;73.47;98956.38;5014412;28;20053;-63
2021/06/30 07:40:08;;;;;;;6.15;3.28;;;;;;;16.57;73.32;98946.94;5014688;28;20022;-64
2021/06/30 07:42:34;;;;;;;6.80;3.42;;;;;;;16.55;75.40;98954.53;5032708;28;20057;-63
2021/06/30 07:44:59;;;;;;;6.70;3.53;;;;;;;16.12;74.82;98946.31;5033499;28;20064;-63
2021/06/30 07:47:25;;;;;;;8.23;3.38;;;;;;;16.71;74.07;98949.72;5032980;28;20480;-63
2021/06/30 07:49:50;;;;;;;7.57;3.38;;;;;;;17.60;70.63;98949.06;5033732;28;20022;-63
2021/06/30 07:52:15;;;;;;;7.25;3.20;;;;;;;18.71;66.50;98946.53;5033360;28;20033;-62
2021/06/30 07:54:41;;;;;;;3.78;2.65;;;;;;;18.48;67.36;98948.34;5034074;28;20032;-64
2021/06/30 07:57:06;;;;;;;9.95;3.13;;;;;;;17.73;68.38;98944.78;5016205;28;20034;-64
2021/06/30 07:59:32;;;;;;;9.20;2.97;;;;;;;18.28;68.13;98944.91;5013875;28;20045;-64
2021/06/30 08:01:57;;;;;;;8.25;3.00;;;;;;;18.67;66.43;98940.09;5029085;28;20467;-63
2021/06/30 08:04:23;;;;;;;3.50;2.63;;;;;;;18.65;66.13;98951.28;5033451;28;20036;-63
2021/06/30 08:06:49;;;;;;;5.03;2.75;;;;;;;18.35;67.69;98944.53;5033090;28;20045;-62
2021/06/30 08:09:14;;;;;;;6.15;3.10;;;;;;;18.72;66.75;98938.09;5033602;28;20036;-62
2021/06/30 08:11:40;;;;;;;7.93;3.20;;;;;;;18.84;65.82;98945.72;5033202;28;20451;-63
2021/06/30 08:14:05;;;;;;;5.88;3.38;;;;;;;19.88;62.71;98950.47;5033618;28;20079;-63
2021/06/30 08:16:31;;;;;;;5.50;3.03;;;;;;;19.73;63.37;98948.94;5032971;28;20068;-63
2021/06/30 08:18:56;;;;;;;5.80;3.00;;;;;;;19.89;62.73;98947.41;5033294;28;20084;-63
2021/06/30 08:21:24;;;;;;;5.35;3.05;;;;;;;19.57;62.93;98946.56;5033097;28;20091;-63
2021/06/30 08:23:50;;;;;;;5.70;3.05;;;;;;;18.57;66.37;98960.13;5033371;28;20112;-63
2021/06/30 08:26:15;;;;;;;7.32;2.90;;;;;;;18.88;66.51;98954.09;5032840;28;20041;-62
2021/06/30 08:28:41;;;;;;;6.70;3.20;;;;;;;18.78;66.14;98957.81;5033249;28;20036;-62
2021/06/30 08:31:06;;;;;;;6.70;3.10;;;;;;;18.67;66.80;98961.81;5032719;28;20045;-62
2021/06/30 08:33:32;;;;;;;6.78;3.42;;;;;;;18.35;67.75;98954.59;5032913;28;20061;-63
2021/06/30 08:35:58;;;;;;;8.07;4.10;;;;;;;17.64;70.40;98970.94;5032823;28;20037;-62
2021/06/30 08:38:23;;;;;;;6.18;3.40;;;;;;;18.20;69.36;98966.53;5031820;28;20079;-62
2021/06/30 08:40:55;;;;;;;5.32;3.90;;;;;;;17.57;70.64;98967.78;5032614;28;20037;-62
2021/06/30 08:43:21;;;;;;;7.97;3.47;;;;;;;17.44;71.17;98964.72;5033008;28;20029;-62
2021/06/30 08:45:46;;;;;;;4.85;2.80;;;;;;;16.78;72.14;98969.16;5032658;28;20052;-62
2021/06/30 08:48:11;;;;;;;5.13;3.25;;;;;;;17.25;71.72;98974.78;5032934;28;20030;-62
2021/06/30 08:50:39;;;;;;;4.38;2.80;;;;;;;17.27;71.39;98974.47;5026358;28;20038;-62
2021/06/30 08:53:05;;;;;;;6.28;2.90;;;;;;;17.02;71.11;98969.13;5013470;28;20026;-62
2021/06/30 08:55:30;;;;;;;8.25;3.00;;;;;;;17.56;70.06;98966.19;4999616;28;20155;-63
2021/06/30 08:57:56;;;;;;;5.57;2.65;;;;;;;17.10;72.02;98967.69;5018472;28;20029;-62
2021/06/30 09:00:21;;;;;;;5.00;2.60;;;;;;;17.40;71.38;98952.88;5035444;28;20041;-62
2021/06/30 09:02:49;;;;;;;9.73;3.00;;;;;;;16.97;72.55;98952.13;5036875;28;20045;-62
2021/06/30 09:05:35;;;;;;;5.30;2.67;;;;;;;16.92;73.12;98958.41;5036830;28;20029;-62
2021/06/30 09:08:00;;;;;;;3.28;2.28;;;;;;;16.87;73.03;98955.78;5035959;28;20037;-62
2021/06/30 09:10:31;;;;;;;4.18;2.42;;;;;;;17.22;72.70;98959.09;5033070;28;20481;-62
2021/06/30 09:12:57;;;;;;;3.28;2.28;;;;;;;17.89;70.14;98964.31;5015914;28;20034;-62
2021/06/30 09:15:32;;;;;;;3.03;2.10;;;;;;;17.78;69.50;98957.44;5019647;28;20045;-62
2021/06/30 09:18:17;;;;;;;4.25;2.13;;;;;;;18.79;67.07;98962.13;5036761;28;20038;-62
2021/06/30 09:20:42;;;;;;;4.60;2.15;;;;;;;18.32;69.07;98951.38;5036203;28;20056;-62
2021/06/30 09:23:07;;;;;;;3.40;2.25;;;;;;;18.50;67.79;98965.16;5036671;28;20021;-63
2021/06/30 09:25:34;;;;;;;6.18;2.20;;;;;;;19.26;65.17;98962.75;5034986;28;20034;-62
2021/06/30 09:28:13;;;;;;;3.78;2.65;;;;;;;20.44;61.56;98977.03;5036420;28;20087;-62
2021/06/30 09:30:56;;;;;;;4.15;2.30;;;;;;;19.03;65.15;98966.53;5029944;28;20092;-63
2021/06/30 09:33:21;;;;;;;3.20;2.28;;;;;;;19.48;63.30;98970.16;5016761;28;20026;-62
2021/06/30 09:35:48;;;;;;;6.28;2.40;;;;;;;20.55;61.10;98969.41;5021470;28;20038;-63
2021/06/30 09:38:26;;;;;;;4.78;2.20;;;;;;;21.91;56.46;98969.38;5036274;28;20033;-63
2021/06/30 09:40:52;;;;;;;4.60;2.60;;;;;;;19.14;64.50;98963.28;5035989;28;20041;-63
2021/06/30 09:43:29;;;;;;;4.07;2.25;;;;;;;19.10;64.57;98965.03;5036329;28;20013;-62
2021/06/30 09:45:55;;;;;;;3.80;2.30;;;;;;;19.18;64.08;98966.22;5027208;28;20058;-62
2021/06/30 09:48:32;;;;;;;4.07;2.40;;;;;;;18.69;65.31;98967.75;5016288;28;20022;-62
2021/06/30 09:50:58;;;;;;;5.60;2.70;;;;;;;18.97;65.24;98955.00;5023917;28;20040;-62
2021/06/30 09:53:37;;;;;;;3.75;1.95;;;;;;;19.20;64.49;98958.56;5034393;28;20025;-62
2021/06/30 09:56:15;;;;;;;3.03;1.85;;;;;;;19.07;63.39;98956.66;5035796;28;20034;-62
2021/06/30 09:58:40;;;;;;;2.95;1.90;;;;;;;19.67;62.04;98966.44;5036058;28;20425;-63
2021/06/30 10:01:17;;;;;;;3.55;1.88;;;;;;;20.23;60.71;98967.78;5026370;28;20038;-63
2021/06/30 10:03:42;;;;;;;3.33;1.90;;;;;;;19.68;62.17;98957.22;5016219;28;20026;-63
2021/06/30 10:06:34;;;;;;;3.70;1.80;;;;;;;19.17;63.76;98959.97;5025208;28;20087;-63
2021/06/30 10:09:01;;;;;;;4.55;2.00;;;;;;;18.72;64.74;98965.25;5035883;28;20456;-63
2021/06/30 10:11:27;;;;;;;3.28;2.25;;;;;;;18.48;65.73;98965.44;5035405;28;20400;-63
2021/06/30 10:13:53;;;;;;;4.40;2.05;;;;;;;19.04;63.77;98960.78;5034694;28;20155;-63
2021/06/30 10:16:20;;;;;;;3.65;2.30;;;;;;;18.46;65.85;98967.63;5023327;28;20041;-63
2021/06/30 10:18:48;;;;;;;4.53;2.50;;;;;;;19.15;64.45;98961.41;5015892;28;20113;-62
2021/06/30 10:21:13;;;;;;;4.00;2.20;;;;;;;19.98;61.06;98964.59;5024141;28;20527;-62
2021/06/30 10:23:38;;;;;;;3.72;2.03;;;;;;;20.78;59.00;98977.47;5017596;28;20029;-62
2021/06/30 10:26:04;;;;;;;4.13;2.25;;;;;;;20.86;58.95;98969.31;5034916;28;20037;-62
2021/06/30 10:28:30;;;;;;;4.00;2.20;;;;;;;21.05;57.26;98979.16;5035650;28;20036;-63
2021/06/30 10:30:55;;;;;;;5.07;2.40;;;;;;;20.07;60.29;98972.00;5033881;28;20049;-62
2021/06/30 10:33:37;;;;;;;6.22;2.67;;;;;;;19.28;62.27;98967.91;5035525;28;20021;-62
2021/06/30 10:36:03;;;;;;;5.25;2.70;;;;;;;19.91;61.35;98972.41;5033773;28;20038;-62
2021/06/30 10:38:55;;;;;;;5.03;2.67;;;;;;;19.29;62.53;98972.22;5034045;28;20033;-62
2021/06/30 10:41:54;;;;;;;4.40;2.45;;;;;;;19.79;60.64;98972.16;5034814;28;20124;-62
2021/06/30 10:44:24;;;;;;;5.10;2.63;;;;;;;19.81;60.84;98975.38;5035304;28;20459;-62
2021/06/30 10:46:50;;;;;;;4.55;3.10;;;;;;;20.29;60.88;98971.97;5034656;28;20333;-63
2021/06/30 10:49:29;;;;;;;3.85;2.80;;;;;;;21.04;57.33;98980.25;5035229;28;20022;-62
2021/06/30 10:52:03;;;;;;;5.40;2.90;;;;;;;20.97;58.56;98974.50;5034585;28;20034;-63
2021/06/30 10:54:32;;;;;;;4.05;2.90;;;;;;;20.93;58.64;98973.50;5035035;28;20456;-62
2021/06/30 10:57:18;;;;;;;6.03;2.80;;;;;;;20.38;59.76;98972.81;5034563;28;20042;-62
2021/06/30 11:00:05;;;;;;;5.85;2.92;;;;;;;20.23;59.63;98967.78;5034933;28;20418;-62
2021/06/30 11:02:33;;;;;;;4.05;2.70;;;;;;;20.07;59.59;98969.28;5034471;28;20082;-63
2021/06/30 11:05:13;;;;;;;4.15;2.70;;;;;;;20.23;60.16;98974.03;5033525;28;20432;-63
2021/06/30 11:07:39;;;;;;;3.58;2.55;;;;;;;19.64;60.73;98973.28;5014431;28;20054;-62
2021/06/30 11:10:34;;;;;;;4.30;2.80;;;;;;;20.05;60.80;98966.91;5014781;28;20022;-62
2021/06/30 11:13:00;;;;;;;6.93;2.90;;;;;;;19.99;60.62;98974.38;5013246;28;20042;-62
2021/06/30 11:15:34;;;;;;;5.03;2.80;;;;;;;19.16;62.61;98971.13;5014419;28;20116;-62
2021/06/30 11:18:00;;;;;;;5.80;2.70;;;;;;;19.29;61.78;98973.00;5013364;28;20053;-62
2021/06/30 11:20:48;;;;;;;5.80;2.63;;;;;;;18.82;63.53;98971.59;5012492;28;20498;-62
2021/06/30 11:23:20;;;;;;;5.70;2.90;;;;;;;19.25;62.47;98977.47;5014540;28;20551;-62
2021/06/30 11:25:45;;;;;;;4.43;3.00;;;;;;;19.58;61.31;98969.09;5014426;28;20042;-63
2021/06/30 11:28:34;;;;;;;5.63;3.10;;;;;;;19.25;62.54;98971.22;5014482;28;20120;-62